Nearby METAR Reports

 

YMEN - Melbourne/Essend, Australia
Distance from station: WNW 96km
Updated: 18/07/2018 08:00
Clear
Clear
 Wind from NNW
Wind: NNW 26 km/h
Temperature: 7°C
Wind Chill: 3°C
Dew Point: 6°C
Humidity: 93%
Barometer: 1014 hPa
Clouds: Clear
Visibility: 10 km
2018/07/17 22:00 YMEN 172200Z AUTO 34014KT 9999 // NCD 07/06 Q1014
YMML - Melbourne Intl A, Australia
Distance from station: WNW 106km
Updated: 18/07/2018 08:00
Few Clouds
Few Clouds
 Wind from N
Wind: N 30 km/h
Temperature: 6°C
Wind Chill: 2°C
Dew Point: 3°C
Humidity: 81%
Barometer: 1015 hPa
Clouds: Few Clouds
Visibility: 10 km
Cloud details: Few Clouds 549 m
2018/07/17 22:00 YMML 172200Z 36016KT 9999 FEW018 06/03 Q1015
YMAV - Avalon Airport, Australia
Distance from station: W 121km
Updated: 18/07/2018 08:00
Clear
Clear
 Wind from N
Wind: N 24 km/h
Temperature: 7°C
Wind Chill: 3°C
Dew Point: 4°C
Humidity: 81%
Barometer: 1014 hPa
Clouds: Clear
Visibility: 10 km
2018/07/17 22:00 YMAV 172200Z AUTO 36013KT 9999 // NCD 07/04 Q1014
 
YWGT - Wangaratta Arp, Australia
Distance from station: N 196km
Updated: 18/07/2018 08:00
Clear
Clear
 Wind from N
Wind: N 7 km/h
Temperature: 2°C
Wind Chill: 0°C
Dew Point: 2°C
Humidity: 100%
Barometer: 1019 hPa
Clouds: Clear
Visibility: 10 km
2018/07/17 22:00 YWGT 172200Z AUTO 01004KT 9999 // NCD 02/02 Q1019
YMAY - Albury Airport, Australia
Distance from station: NNE 250km
Updated: 18/07/2018 08:33
Mostly cloudy
Mostly cloudy
 Wind from NNE
Wind: NNE 4 km/h
Temperature: 6°C
Dew Point: 6°C
Humidity: 100%
Barometer: 1019 hPa
Clouds: Mostly cloudy
Visibility: 10 km
Cloud details: Partly cloudy 640 m
Mostly cloudy 1158 m
2018/07/17 22:33 YMAY 172233Z AUTO 03002KT 9999 // SCT021 BKN038 06/06 Q1019
YCOM - Cooma Snowy Mtns, Australia
Distance from station: NE 343km
Updated: 18/07/2018 08:00
Clear
Clear
 Wind from W
Wind: W 11 km/h
Temperature: 2°C
Wind Chill: -1°C
Dew Point: -5°C
Humidity: 60%
Barometer: 1014 hPa
Clouds: Clear
Visibility: 10 km
2018/07/17 22:00 YCOM 172200Z AUTO 27006KT 9999 // NCD 02/M05 Q1014
 
YSWG - Wagga Wagga(Cv/M, Australia
Distance from station: NNE 364km
Updated: 18/07/2018 08:00
Clear
Clear
 Wind from calm
Wind: Calm
Temperature: 1°C
Dew Point: 0°C
Humidity: 93%
Barometer: 1019 hPa
Summary: Clear
Visibility: greater than 10 km
2018/07/17 22:00 YSWG 172200Z 00000KT CAVOK 01/00 Q1019
YMER - Merimbula Arpt, Australia
Distance from station: ENE 382km
Updated: 18/07/2018 08:00
Clear
Clear
 Wind from NW
Wind: NW 13 km/h
Temperature: 7°C
Wind Chill: 5°C
Dew Point: 2°C
Humidity: 71%
Barometer: 1015 hPa
Clouds: Clear
Visibility: 10 km
2018/07/17 22:00 YMER 172200Z AUTO 31007KT 9999 // NCD 07/02 Q1015
YNAR - Narrandera, Australia
Distance from station: N 388km
Updated: 18/07/2018 08:00

 Wind from calm
Wind: Calm
Temperature: 1°C
Dew Point: 0°C
Humidity: 93%
Barometer: 1020 hPa
2018/07/17 22:00 YNAR 172200Z AUTO 00000KT //// // ////// 01/M00 Q1020
 
YMLT - Launceston Airpo, Australia
Distance from station: SSE 392km
Updated: 18/07/2018 08:00
Clear
Clear
 Wind from NNW
Wind: NNW 15 km/h
Temperature: 3°C
Wind Chill: -1°C
Dew Point: 1°C
Humidity: 87%
Barometer: 1007 hPa
Clouds: Clear
Visibility: 10 km
2018/07/17 22:00 YMLT 172200Z AUTO 33008KT 9999 // NCD 03/01 Q1007
YGTH - Griffith Arpt, Australia
Distance from station: N 434km
Updated: 18/07/2018 08:00
Clear
Clear
 Wind from calm
Wind: Calm
Temperature: 2°C
Dew Point: 0°C
Humidity: 87%
Barometer: 1020 hPa
Clouds: Clear
Visibility: 10 km
2018/07/17 22:00 YGTH 172200Z AUTO 00000KT 9999 // NCD 02/00 Q1020
YSCB - Canberra (civ/Mi, Australia
Distance from station: NE 434km
Updated: 18/07/2018 08:00
Clear
Clear
 Wind from NW
Wind: NW 13 km/h
Temperature: 4°C
Wind Chill: 1°C
Dew Point: 1°C
Humidity: 81%
Barometer: 1017 hPa
Summary: Clear
Visibility: greater than 10 km
2018/07/17 22:00 YSCB 172200Z 32007KT CAVOK 04/01 Q1017 FM2200 MOD TURB BLW 5000FT TILL 0000
 
YMTG - Mount Gambier, Australia
Distance from station: W 447km
Updated: 18/07/2018 08:30
Mostly cloudy
Mostly cloudy
 Wind from N
Wind: N 22 km/h
Temperature: 8°C
Wind Chill: 4°C
Dew Point: 7°C
Humidity: 93%
Barometer: 1011 hPa
Clouds: Mostly cloudy
Visibility: 10 km
Cloud details: Partly cloudy 305 m
Mostly cloudy 884 m
Mostly cloudy 2042 m
2018/07/17 22:30 YMTG 172230Z AUTO 36012KT 9999 // SCT010 BKN029 BKN067 08/07 Q1011
YMHB - Hobart/Tasmania, Australia
Distance from station: SSE 538km
Updated: 18/07/2018 08:00
Partly cloudy
Partly cloudy
 Wind from NW
Wind: NW 7 km/h
Temperature: 5°C
Wind Chill: 3°C
Dew Point: 2°C
Humidity: 81%
Barometer: 1004 hPa
Clouds: Partly cloudy
Visibility: 10 km
Cloud details: Few Clouds 1067 m
Partly cloudy 7620 m
2018/07/17 22:00 YMHB 172200Z 31004KT 9999 FEW035 SCT250 05/02 Q1004
YSNW - Nowra (aus-Navy), Australia
Distance from station: NE 547km
Updated: 18/07/2018 08:00
Clear
Clear
 Wind from NW
Wind: NW 26 km/h
Temperature: 10°C
Wind Chill: 7°C
Dew Point: 1°C
Humidity: 54%
Barometer: 1017 hPa
Summary: Clear
Visibility: greater than 10 km
2018/07/17 22:00 YSNW 172200Z 31014KT CAVOK 10/01 Q1017 FM2200 MOD TURB BLW 5000FT TILL2300
 
YMIA - Mildura Arpt, Australia
Distance from station: NW 551km
Updated: 18/07/2018 08:00
Clear
Clear
 Wind from N
Wind: N 9 km/h
Temperature: 4°C
Wind Chill: 2°C
Dew Point: 0°C
Humidity: 75%
Barometer: 1019 hPa
Clouds: Clear
Visibility: 10 km
2018/07/17 22:00 YMIA 172200Z AUTO 36005KT 9999 // NCD 04/00 Q1019
YSSY - Sydney Intl Airp, Australia
Distance from station: NE 667km
Updated: 18/07/2018 08:00
Clear
Clear
 Wind from NW
Wind: NW 7 km/h
Temperature: 15°C
Dew Point: 0°C
Humidity: 36%
Barometer: 1017 hPa
Summary: Clear
Visibility: greater than 10 km
2018/07/17 22:00 YSSY 172200Z 32004KT CAVOK 15/00 Q1017 NOSIG
YSRI - Richmond (aus-Af, Australia
Distance from station: NE 671km
Updated: 18/07/2018 08:00
Clear
Clear
 Wind from SW
Wind: SW 7 km/h
Temperature: 10°C
Wind Chill: 9°C
Dew Point: 4°C
Humidity: 67%
Barometer: 1018 hPa
Clouds: Clear
Visibility: 10 km
2018/07/17 22:00 YSRI 172200Z AUTO 23004KT 170V290 9999 // NCD 10/04 Q1018
 
YSDU - Dubbo, Australia
Distance from station: NNE 704km
Updated: 18/07/2018 08:00
Clear
Clear
 Wind from N
Wind: N 2 km/h
Temperature: 5°C
Dew Point: -2°C
Humidity: 61%
Barometer: 1019 hPa
Clouds: Clear
Visibility: 10 km
2018/07/17 22:00 YSDU 172200Z AUTO 01001KT 9999 // NCD 05/M02 Q1019
YMDG - Mudgee Arpt, Australia
Distance from station: NNE 708km
Updated: 18/07/2018 08:00
Clear
Clear
 Wind from N
Wind: N 13 km/h
Temperature: 4°C
Wind Chill: 1°C
Dew Point: -1°C
Humidity: 70%
Barometer: 1019 hPa
Clouds: Clear
Visibility: 10 km
2018/07/17 22:00 YMDG 172200Z AUTO 01007KT 9999 // NCD 04/M01 Q1019